Latest Observation

114 Stations

10 Minute Data
as of 9/5/26 1:22 AM PDT
Station Date Time Temp (°F) RH (%) Dew Pt (°F) Wind Spd (mph) Wind Dir (°) Wind Gust (mph) Wind Gst Dir (°) Latest Rain (In) Soil Moist (%) Soil Temp (°F) Daily Rain (In) Daily Min Temp (°F) Daily Max Temp (°F) Daily Max Wind (mph)
Hobart Mills 9/5/26 0120 43.6   4.1 81   12 38.2   7.8 0.1   0.9 NW | 318 1.0   3.0 NNW | 336 0.00 7.5   0.1 61.1   1.8 0.00 43.4   4.3 43.8   4.0 2.2   2.6
Prosser Dam 9/5/26 0120 45.3   4.2 82   3 40.0   5.2 1.0   1.4 NNE | 24 3.1   4.5 NNE | 17 0.00 5.2   0.0 60.1   1.0 0.00 44.3   5.1 47.0   3.3 3.6   4.0
West Incline Village 9/5/26 0120 45.8   0.5 74   13 38.1   3.6 1.9   4.4 E | 90 4.3   14.0 NE | 40 0.00 11.7   0.1 55.9   0.9 0.00 44.5   0.7 46.0   0.3 5.3   13.0
Incline Village (Fairview Blvd) 9/5/26 0120 47.6   0.5 72   5 39.1   2.4 0.0   3.9 N | 0 0.0   13.0 NW | 325 0.00 7.6   0.1 67.9   1.6 0.00 47.3   0.8 47.9   0.3 0.0   13.8
Incline Village (Diamond Peak) 9/5/26 0120 44.9   0.6 75   6 37.5   2.7 2.0   1.9 SSW | 202 7.5   2.0 WSW | 239 0.00 2.4   0.0 56.6   1.7 0.00 44.6   0.8 45.4   0.1 7.5   2.0
Incline Village (Mill Creek) 9/5/26 0120 46.5   3.8 75   1 38.8   3.4 1.4   2.0 E | 82 4.6   10.8 E | 87 0.00 2.9   0.0 60.6   0.8 0.00 46.2   4.1 47.4   3.2 4.6   10.8
Incline Village (Lakeshore Blvd) 9/5/26 0120 47.2   5.8 76   0 40.1   5.5 0.8   6.1 NNE | 17 2.5   9.9 NE | 43 0.00 22.1   2.1 59.0   0.8 0.00 46.7   6.0 48.5   4.7 2.7   9.7
Glenbrook 9/5/26 0120 42.4   11.9 80   12 36.7   7.5 0.8   9.0 SE | 127 2.2   13.5 S | 169 0.00 43.5   0.2 58.2   0.1 0.00 42.0   11.9 43.0   11.7 4.2   13.4
Zephyr Cove 9/5/26 0120 45.7   5.8 71   5 36.7   3.8 0.0   1.4 NW | 315 1.0   4.5 NW | 319 0.00 2.8   0.0 60.9   0.3 0.00 45.4   6.0 45.8   5.8 1.0   11.5
Kingsbury Grade 9/5/26 0120 39.8   9.7 83   14 35.0   4.8 0.2   2.2 E | 95 2.1   9.2 E | 82 0.00 2.1   0.6 63.6   1.9 0.00 39.4   10.1 41.4   8.3 4.0   8.2
South Daggett Pass (Ridge) 9/5/26 0120 42.5   3.3 77   0 35.8   3.2 1.0   2.3 W | 261 3.8   12.2 NW | 321 0.00 2.2   0.0 61.0   0.8 0.00 42.1   3.7 42.6   3.4 4.8   11.2
Palomino Valley 9/5/26 0120 49.0   11.8 67   15 38.7   4.8 3.8   2.5 ESE | 107 5.3   3.5 ESE | 110 0.00 6.6   0.1 75.2   0.4 0.00 48.4   12.5 50.2   10.9 5.3   5.7
East Cold Springs 9/5/26 0120 49.8   2.5 64   13 38.2   7.3 7.9   3.4 W | 269 11.4   3.6 W | 268 0.00 1.5   0.1 70.3   0.5 0.00 49.2   2.7 50.9   2.3 11.4   0.6
Peavine 9/5/26 0120 52.2   1.0 55   17 36.6   5.8 17.2   9.0 SW | 229 22.2   9.8 SW | 229 0.00 4.3   0.0 65.7   1.7 0.00 51.6   0.5 52.4   0.7 22.2   4.4
West Verdi Peak 9/5/26 0220 48.0   0.7 68   20 38.2   5.9 3.8   2.8 SSE | 159 18.0   1.1 E | 101 0.00 6.4   0.1 65.6   1.2 0.00 46.7   0.5 48.6   0.4 18.0   1.1
West Verdi 9/5/26 0120 52.0   1.7 63   12 39.7   6.3 4.3   0.7 WNW | 283 7.3   3.5 W | 265 0.00 6.0   0.2 75.7   2.7 0.00 51.6   2.0 52.6   1.5 7.3   3.5
South Verdi 9/5/26 0120 51.8   0.5 60   14 38.2   6.1 9.2   1.4 S | 189 12.3   8.2 SSW | 210 0.00 10.1   0.1 66.9   2.3 0.00 50.9   1.2 53.0   0.2 12.3   8.3
Northwest Reno 9/5/26 0120 53.0   2.2 59   8 39.3   5.4 2.7   15.6 NE | 37 5.7   18.3 E | 98 0.00 24.5   0.1 72.4   1.9 0.00 52.7   2.2 55.4   1.2 12.0   11.9
North Lawton 8/28/26 1620 63.8   17.1 74   52 55.4   16.5 1.5   11.6 ESE | 121 5.1   19.0 SE | 124 0.00 - 78.2   0.0 0.05 59.2   7.5 71.9   13.3 20.4   4.6
West Reno (Mogul) 9/5/26 0120 53.8   0.3 55   18 38.1   7.6 4.7   0.8 SW | 234 9.9   1.2 WSW | 249 0.00 19.4   0.1 76.6   0.6 0.00 52.6   1.2 55.1   0.4 10.2   1.4
Caughlin (Hunter Lake Trail) 9/5/26 0120 49.8   5.6 63   3 37.8   6.5 1.3   1.7 SSW | 198 5.5   1.6 SSW | 199 0.00 16.2   0.1 70.1   2.1 0.00 49.6   5.5 50.6   5.1 8.2   0.3
ArrowCreek 9/5/26 0120 51.6   6.7 61   7 38.4   3.2 5.1   12.8 SW | 224 9.6   19.2 WSW | 252 0.00 - 32.0   0.0 0.00 49.9   8.3 52.9   5.7 9.6   19.2
Tracy 9/5/26 0120 55.7   8.5 56   16 40.3   0.8 1.7   5.1 SSW | 198 2.5   9.2 SSW | 193 0.00 15.6   0.1 76.7   0.8 0.00 54.0   10.1 57.2   7.2 7.0   4.7
Virginia Highlands 9/5/26 0120 50.1   4.4 67   12 39.5   1.1 1.3   3.1 S | 190 5.0   6.6 SSW | 204 0.00 7.8   0.1 72.0   0.3 0.00 49.7   4.8 50.5   4.2 5.0   6.6
Virginia City 9/5/26 0120 50.5   3.1 61   6 37.4   0.2 4.8   6.5 SE | 134 6.7   15.7 ESE | 118 0.00 4.8   0.0 72.1   0.0 0.00 50.4   3.1 50.8   2.8 6.7   15.7
Six Mile Canyon 9/5/26 0120 56.8   5.8 49   7 37.9   1.0 6.6   1.0 NW | 309 9.2   1.6 WNW | 302 0.00 12.2   0.0 75.4   0.1 0.00 56.3   6.2 57.6   5.0 9.4   3.0
Mt Rose Highway 9/5/26 0120 47.5   1.3 65   14 36.3   3.9 7.4   1.3 SW | 214 22.5   2.1 WSW | 250 0.00 7.4   0.0 59.6   1.0 0.00 47.1   1.5 47.7   0.7 22.5   2.1
Pleasant Valley 9/5/26 0120 48.1   11.3 68   16 37.9   3.8 2.6   10.2 W | 276 5.8   14.8 NW | 326 0.00 2.3   0.0 73.4   2.6 0.00 46.9   12.5 49.5   10.1 7.9   13.9
New Washoe City 9/5/26 0120 50.4   8.3 65   16 39.3   0.3 1.4   5.4 NNE | 33 5.3   7.9 NNE | 27 0.00 3.4   0.0 70.8   0.7 0.00 49.8   8.8 51.3   7.4 5.5   9.7
Franktown Creek 9/5/26 0120 57.6   1.1 53   2 40.8   1.8 3.7   3.3 WSW | 247 10.7   7.8 WNW | 293 0.00 6.9   0.0 69.7   1.3 0.00 57.0   1.4 57.8   0.9 14.8   5.5
Musgrove Creek 9/5/26 0120 53.6   2.4 57   1 38.7   1.6 3.9   2.4 SSW | 199 8.2   0.7 S | 178 0.00 10.2   0.1 59.8   0.2 0.00 53.5   2.2 54.2   2.0 8.4   1.0
East Carson 11/23/24 0110 28.6   28.4 - - 4.7   11.0 SW | 220 14.7   10.1 SW | 219 0.02 - 50.9   0.1 0.02 -25.9   79.1 42.9   14.6 16.0   10.7
Kings Canyon 9/5/26 0120 52.9   5.5 56   6 37.8   2.4 1.7   2.3 NW | 307 4.3   10.9 WNW | 297 0.00 4.1   0.0 66.9   1.2 0.00 51.6   6.7 55.5   3.2 4.5   10.8
Carson City (Voltaire Canyon) 9/5/26 0120 55.9   3.8 54   3 39.4   2.0 8.6   14.7 WSW | 248 11.8   20.0 WSW | 251 0.00 2.8   0.1 76.3   0.7 0.00 55.3   4.1 56.5   3.5 11.8   21.2
Jacks Valley 9/5/26 0120 53.1   5.5 55   4 37.5   3.2 2.3   10.2 NE | 49 4.3   15.0 NW | 314 0.00 4.6   0.1 73.1   2.9 0.00 52.2   6.3 55.5   3.2 7.8   11.6
Genoa 9/5/26 0120 53.2   7.7 59   9 39.4   3.0 0.1   1.1 N | 7 2.0   5.3 N | 0 0.00 2.2   0.0 63.6   4.6 0.00 52.6   8.1 57.8   3.5 9.9   2.5
South Genoa (Walleys Hot Springs) 9/5/26 0120 53.3   8.2 58   9 38.8   3.3 5.0   4.1 NW | 321 9.6   4.0 N | 0 0.00 5.1   0.5 73.1   0.7 0.00 50.2   11.2 55.1   7.3 9.6   3.5
SW Gardnerville (HWY 88) 9/5/26 0120 51.6   8.8 62   11 39.0   3.0 1.4   10.9 N | 353 5.5   12.5 NW | 310 0.00 2.8   0.0 67.7   0.8 0.00 50.7   9.5 53.8   6.9 5.5   13.5
Sheridan 9/5/26 0120 54.8   5.6 51   2 37.2   4.3 4.3   0.0 WSW | 254 9.8   0.4 W | 261 0.00 1.1   0.0 70.6   1.8 0.00 54.0   5.9 58.0   3.7 9.8   12.8
Ruhenstroth 9/5/26 0120 54.6   5.1 53   6 37.8   1.8 8.4   9.7 SE | 139 11.6   15.9 SSE | 151 0.00 6.8   0.1 70.4   2.7 0.00 54.0   5.8 55.7   4.2 11.6   15.9
Double Spring 9/5/26 0120 46.4   9.6 66   15 35.8   2.4 0.9   2.3 WNW | 302 2.2   5.7 W | 260 0.00 25.0   0.0 70.9   0.4 0.00 46.0   9.5 48.7   7.4 2.2   5.7
North Topaz Lake 9/5/26 0120 55.7   3.1 49   0 36.6   2.8 2.8   2.8 W | 259 4.7   9.6 W | 267 0.00 7.5   0.1 68.6   2.5 0.00 55.6   3.1 55.9   2.9 4.7   9.7
Wild Oat Mountain 9/5/26 0120 52.8   4.1 54   4 36.6   1.9 1.9   8.0 N | 356 5.0   15.8 NNW | 336 0.00 5.7   0.0 69.9   1.5 0.00 51.9   4.7 53.3   3.8 6.2   14.5
Smith Valley 9/5/26 0120 57.0   6.1 46   5 36.4   2.9 3.6   4.2 W | 268 5.7   8.3 WSW | 258 0.00 2.8   0.0 78.3   0.0 0.00 56.7   6.1 57.4   5.9 6.7   7.3
Pine Grove Mountain 9/5/26 0120 43.3   2.8 72   14 35.0   2.7 6.1   0.1 NNE | 26 10.8   2.4 NNE | 14 0.00 6.6   0.1 65.0   0.0 0.00 42.8   3.2 43.8   2.5 10.8   2.4
Paradise Hill 9/5/26 0120 56.9   1.4 53   4 39.9   3.2 3.4   5.3 SSW | 199 6.6   8.7 WSW | 248 0.00 9.8   0.1 71.8   1.1 0.00 53.6   4.3 59.0   1.1 8.8   6.5
Winnemucca 9/5/26 0120 55.7   3.2 49   5 36.7   5.4 5.0   2.8 S | 170 7.0   6.3 S | 172 0.00 5.7   0.0 73.3   0.0 0.00 54.8   3.4 56.8   2.3 8.1   5.2
NE Elko 9/5/26 0120 52.5   9.3 58   22 38.3   3.2 4.2   0.4 E | 93 5.7   2.6 E | 93 0.00 5.7   0.0 73.7   0.1 0.00 52.3   9.4 53.7   8.8 6.2   5.6
North Elko 9/5/26 0120 53.6   5.3 57   15 39.0   3.0 3.2   1.0 NNW | 348 5.0   0.6 NNW | 341 0.00 24.6   0.0 72.5   0.0 0.00 53.5   4.4 53.7   5.3 5.0   0.5
South Elko 9/5/26 0120 52.8   3.6 60   8 39.3   0.1 0.2   5.4 W | 278 2.4   5.3 WNW | 290 0.00 13.6   0.0 69.8   0.3 0.00 52.6   2.2 53.7   14.4 2.4   9.3
Lamoille 9/5/26 0120 50.5   6.6 61   16 37.8   1.4 2.6   6.4 SE | 143 3.5   9.2 SE | 140 0.00 6.1   0.1 68.9   0.3 0.00 50.0   6.4 51.2   7.2 5.0   8.2
Reid Gardner Sub 9/5/26 0120 75.8   0.4 21   3 32.7   4.0 1.2   0.5 WSW | 248 2.6   1.0 SW | 226 0.00 24.3   1.7 88.7   0.4 0.00 74.3   2.4 79.3   2.7 3.2   2.9
Corn Creek 9/5/26 0120 75.5   1.9 23   2 34.8   0.3 12.1   1.0 NE | 53 19.1   1.9 ENE | 57 0.00 3.1   0.0 87.9   0.1 0.00 74.9   1.4 75.7   2.8 19.9   1.4
Lucky Strike 9/5/26 0120 68.2   0.1 23   0 28.6   0.4 4.5   5.3 SW | 218 10.3   5.7 S | 177 0.00 3.1   0.1 81.9   1.2 0.00 66.2   1.9 69.0   0.5 10.3   8.9
Lower Angel Peak 9/5/26 0120 65.8   1.0 25   4 28.8   3.6 9.3   0.4 SSE | 152 17.1   2.4 SSE | 163 0.00 3.1   0.0 73.6   0.0 0.00 64.2   1.9 66.2   0.9 17.1   2.4
Angel Peak 9/5/26 0120 54.9   0.1 29   2 23.4   1.5 26.4   15.2 SSW | 194 37.0   15.2 SSW | 198 0.00 2.5   0.0 65.2   1.1 0.00 54.3   0.5 55.2   0.2 37.0   9.7
Upper Kyle Canyon 9/5/26 0120 58.9   0.6 30   5 27.2   3.6 9.1   4.1 ENE | 74 20.7   1.4 ENE | 58 0.00 7.7   0.1 75.8   0.3 0.00 58.8   0.6 59.6   0.5 20.7   1.4
Mt Charleston 9/5/26 0120 59.4   1.3 31   6 28.4   3.8 3.2   4.5 WSW | 254 12.9   4.0 W | 276 0.00 13.2   0.0 66.8   0.6 0.00 59.2   1.3 59.8   1.2 12.9   10.7
Mid Kyle Canyon 9/5/26 0120 62.5   5.6 28   8 28.8   3.5 5.2   8.2 W | 270 13.4   15.0 W | 264 0.00 5.8   0.0 75.1   0.3 0.00 59.2   8.3 64.5   3.8 13.4   15.0
Blue Diamond 9/5/26 0120 76.5   1.3 28   3 40.7   2.0 8.4   2.9 NNW | 344 15.3   5.5 NNW | 330 0.00 1.2   0.0 87.2   0.5 0.00 76.1   1.4 77.0   1.2 15.3   3.7
Artesian Sub 9/5/26 0120 83.8   0.3 22   0 40.5   0.6 3.0   2.1 SE | 126 5.5   3.6 ESE | 119 0.00 11.7   0.0 92.2   0.4 0.00 83.6   0.1 85.1   0.6 5.5   3.6
North Henderson 9/5/26 0120 86.7   1.1 21   1 42.0   2.1 9.5   3.6 S | 183 14.4   3.4 S | 172 0.00 10.4   0.2 95.6   0.4 0.00 86.6   1.1 87.1   1.2 14.5   3.5
Sandy Valley 9/5/26 0120 75.4   0.6 33   3 44.4   2.0 1.6   0.5 SE | 143 5.1   1.2 SW | 218 0.00 7.5   0.2 89.2   0.1 0.00 75.0   0.6 76.3   0.1 5.8   1.4
Searchlight 9/5/26 0120 72.3   2.2 25   4 34.8   5.9 7.7   5.2 S | 184 13.3   8.2 S | 188 0.00 5.7   0.0 85.5   0.6 0.00 71.1   1.3 72.9   1.8 13.3   7.6
Laughlin 9/5/26 0120 88.7   0.9 15   2 35.1   3.7 4.2   1.1 SW | 221 7.0   3.6 SSW | 208 0.00 4.4   0.1 98.8   0.7 0.00 88.4   1.0 89.4   1.2 7.0   3.6
31Mission Hills 9/5/26 0120 81.5   2.2 17   2 32.7   4.7 7.1   0.0 S | 175 10.2   1.6 S | 177 0.00 6.2   0.2 87.1   0.1 0.00 80.6   1.7 81.9   2.2 12.0   0.2
32 Enterprise Sierra Cliffs 9/5/26 0120 77.9   1.5 24   2 38.0   0.6 9.5   4.5 SSW | 199 14.3   4.2 SSW | 206 0.00 1.3   0.0 84.9   0.4 0.00 77.3   1.1 78.0   0.1 14.3   4.2
29 Calico Basin 9/5/26 0120 74.0   2.6 26   3 37.0   1.3 2.1   12.8 ESE | 106 6.0   17.8 ESE | 102 0.00 2.4   0.0 86.2   0.5 0.00 73.8   2.5 75.6   1.2 6.0   17.8
28 Indian Springs 9/5/26 0120 73.4   0.9 23   4 33.0   5.9 3.6   1.1 ESE | 115 5.1   0.2 SE | 124 0.00 4.4   0.0 86.3   1.4 0.00 71.5   1.1 73.9   0.9 5.7   2.0
30 Jean 9/5/26 0120 73.5   0.2 27   3 37.4   2.6 7.4   0.4 SSW | 197 12.8   0.6 SSW | 194 0.00 4.9   0.1 85.1   0.1 0.00 73.0   0.5 73.8   0.5 12.8   0.6
VC Highlands NW 9/5/26 0120 48.6   4.0 67   12 38.2   1.4 1.3   3.4 WSW | 255 2.7   7.2 SW | 235 0.00 1.5   0.1 62.2   2.9 0.00 48.4   4.1 48.7   4.0 4.2   8.2
Glenbrook-Spooner Summit 9/5/26 0120 40.8   7.9 82   15 35.8   2.4 5.9   0.8 WSW | 258 10.7   6.6 W | 260 0.00 7.7   0.0 65.0   0.5 0.00 40.2   8.4 41.2   7.6 10.9   7.0
Hobo Hot Springs 9/5/26 0120 51.8   9.6 60   14 38.4   1.9 1.4   10.6 WNW | 303 3.2   21.2 SSE | 166 0.00 1.0   0.1 68.9   1.7 0.00 50.7   10.6 52.3   9.3 3.2   21.2
Jack Valley Ranch 2 9/5/26 0120 52.8   5.3 55   4 36.9   2.9 6.3   2.3 N | 357 9.3   12.0 N | 6 0.00 2.2   0.1 73.2   1.0 0.00 52.2   5.3 53.0   5.4 9.3   12.0
Genoa North 2 9/5/26 0120 50.8   9.1 59   12 37.2   2.9 1.5   3.2 WNW | 296 4.2   10.3 WNW | 285 0.00 0.8   0.0 72.6   2.2 0.00 50.7   9.2 52.7   7.3 6.7   11.2
Mottsville 2 9/5/26 0120 54.2   6.7 51   5 36.4   3.5 2.2   1.7 NNE | 17 5.8   2.9 NE | 51 0.00 1.4   0.0 71.1   1.0 0.00 53.0   7.5 57.2   3.9 6.8   6.0
Kingsbury Village 3 9/5/26 0120 40.0   4.9 78   3 33.6   3.9 2.3   0.6 NNE | 12 5.8   0.7 NNE | 24 0.00 3.2   0.1 58.1   2.5 0.00 38.5   6.3 40.5   4.5 5.8   0.7
Kingsbury-Benjamin Dr 2 9/5/26 0120 41.8   5.1 76   5 34.7   3.2 2.0   2.1 WSW | 244 6.2   7.3 SW | 222 0.00 2.9   0.1 64.0   3.2 0.00 41.0   5.7 42.9   4.1 6.2   8.0
Smith Valley-Wellington 9/5/26 0120 53.6   8.4 56   15 38.1   0.4 2.4   1.3 NNE | 12 4.8   2.9 N | 355 0.00 3.6   0.0 80.6   0.0 0.00 52.9   8.7 54.6   7.6 4.8   2.9
Sheridan South 2 9/5/26 0120 60.7   0.9 43   6 38.1   2.3 6.3   0.2 S | 178 14.0   0.5 SSW | 195 0.00 0.4   0.1 70.0   3.0 0.00 60.0   0.5 60.8   0.1 14.0   1.0
Silver Springs 9/5/26 0120 58.6   5.7 49   10 39.5   0.8 10.6   4.1 NNW | 334 15.9   7.0 NNW | 331 0.00 5.0   0.0 77.0   1.0 0.00 58.5   5.7 58.9   5.8 15.9   7.0
Fernley 9/5/26 0120 54.3   9.5 54   16 38.0   0.0 2.6   7.0 SW | 222 5.6   9.2 SSW | 208 0.00 3.2   0.0 73.6   1.0 0.00 53.9   9.7 55.2   8.7 7.6   7.2
Spanish Springs 9/5/26 0120 50.0   9.1 65   7 38.5   5.8 0.6   3.5 WNW | 294 2.9   6.0 WNW | 298 0.00 10.2   0.1 75.1   0.6 0.00 49.5   9.4 50.3   9.4 2.9   6.0
Suttcliffe South 2 9/5/26 0120 52.6   6.5 60   0 39.1   6.3 2.1   5.3 WNW | 293 3.5   8.1 WNW | 298 0.00 4.1   0.0 69.4   1.1 0.00 51.6   7.2 53.1   6.5 4.2   10.2
Lemmon Valley North 9/5/26 0120 52.1   1.3 58   17 37.9   8.0 6.3   3.4 SSW | 208 8.2   2.7 SW | 220 0.00 2.0   0.0 70.1   0.5 0.00 51.0   2.1 52.5   0.9 11.8   6.3
Lemmon Valley NW 3 9/5/26 0120 52.5   3.7 56   6 37.4   6.1 4.0   5.4 N | 357 6.5   8.9 N | 0 0.00 1.2   0.1 72.4   0.4 0.00 52.0   3.8 53.6   2.7 6.5   8.9
VC Highlands North 9/5/26 0120 44.8   9.8 73   21 36.5   0.4 0.0   4.0 N | 0 0.0   9.4 NW | 326 0.00 4.4   0.2 64.0   4.3 0.00 44.3   10.2 45.9   8.7 0.0   10.3
Upper Voltaire Cyn 9/5/26 0120 52.6   3.0 53   1 36.1   2.5 3.6   6.9 WSW | 252 8.8   9.3 SW | 229 0.00 1.1   0.1 66.2   3.3 0.00 52.2   3.3 53.4   2.3 9.7   13.9
Yerington NW 9/5/26 0120 55.0   7.5 56   16 39.9   1.9 5.6   1.4 S | 190 7.2   4.3 S | 175 0.00 7.2   0.0 74.0   0.0 0.00 53.9   8.0 57.4   5.4 8.3   3.2
Spanish Springs SW 9/5/26 0120 49.8   7.8 62   3 37.5   6.1 2.0   2.1 WNW | 283 3.0   5.6 NW | 323 0.00 1.5   0.0 74.2   0.7 0.00 48.8   8.7 50.7   7.0 3.0   5.6
Cosgrave 2 8/27/26 0750 62.9   4.1 34   3 33.8   1.4 2.6   0.5 WSW | 246 4.1   1.0 W | 267 0.00 3.8   0.1 77.4   2.9 0.00 62.7   3.3 77.4   3.5 11.2   3.9
Winnemucca-Grass Valley 2 9/5/26 0120 56.2   2.7 47   4 36.2   4.7 3.4   2.2 NNE | 19 6.0   4.7 NE | 42 0.00 7.6   0.1 65.2   2.0 0.00 54.5   4.2 56.4   2.7 6.0   6.7
Winnemucca-Dutch Flat Rd 9/5/26 0120 56.4   2.9 47   2 36.5   3.9 9.4   5.9 SW | 232 13.5   7.6 SW | 230 0.00 6.1   0.0 73.5   0.2 0.00 56.2   2.8 56.8   2.7 13.5   5.7
Paradise Valley 2 9/5/26 0120 56.6   2.4 58   7 42.0   1.1 1.0   2.1 WSW | 251 2.7   3.0 ENE | 70 0.00 12.6   0.2 73.6   2.2 0.00 56.0   2.6 57.1   2.0 2.7   3.4
Golconda 2 9/5/26 0120 59.4   0.2 38   11 33.9   6.8 11.7   0.5 WNW | 292 17.3   0.5 WNW | 294 0.00 1.8   0.1 70.8   3.6 0.00 59.1   0.5 59.9   0.2 17.6   0.1
Battle Mountain - South 9/5/26 0120 53.8   5.9 58   13 39.5   1.1 1.6   3.3 S | 174 2.9   6.1 SSE | 162 0.00 9.2   0.0 74.9   0.2 0.00 52.0   7.3 54.1   6.1 3.2   5.7
Geiger Summit 9/5/26 0120 46.8   4.0 100   0 46.8   4.0 3.8   2.4 S | 185 7.5   7.9 SW | 233 0.00 5.9   0.0 62.0   0.9 0.00 46.5   4.2 47.4   3.4 7.5   8.4
Combs Canyon 3 9/5/26 0120 54.4   5.6 54   8 38.0   0.9 5.5   1.9 NNE | 16 8.6   9.6 NNE | 14 0.00 1.0   0.0 73.6   0.2 0.00 53.5   6.2 54.8   5.2 8.6   13.0
Clear Creek 9/5/26 0110 54.0   2.4 52   1 36.6   1.5 5.6   3.7 SW | 229 11.2   15.2 WSW | 256 0.00 3.4   0.0 66.7   2.5 0.00 53.6   2.8 54.3   2.1 11.2   15.2
Eastlake 2 9/5/26 0120 55.9   3.5 50   3 37.3   1.6 5.2   0.8 S | 175 7.7   1.1 S | 187 0.00 3.4   0.0 72.4   0.8 0.00 54.8   4.4 57.7   1.8 12.3   2.2
Lovelock-Colado 2 9/5/26 0120 57.6   4.6 43   12 35.1   2.2 7.1   2.5 NE | 42 10.7   4.7 NE | 44 0.00 - 75.0   0.7 0.00 57.3   6.1 58.2   2.6 11.3   5.3
Spanish Springs NW 9/5/26 0120 50.8   8.4 63   6 38.6   5.3 2.7   0.3 N | 10 4.7   0.7 N | 353 0.00 12.1   0.2 67.3   1.2 0.00 50.3   8.7 52.9   6.8 5.2   0.2
Battle Mountain NW 9/5/26 0120 57.8   1.9 51   5 40.1   0.7 4.8   0.0 WNW | 291 10.1   2.1 W | 259 0.00 8.7   0.1 74.2   2.0 0.00 54.4   5.2 58.8   1.2 10.3   2.4
Austin 2 9/5/26 0020 45.9   1.2 67   12 35.6   3.7 4.9   0.3 SW | 220 6.7   0.5 SW | 214 0.00 2.4   0.0 64.1   0.9 0.00 44.9   1.2 46.8   1.4 8.2   1.0
Elko-Osino 9/5/26 0120 52.1   4.2 55   12 36.4   2.3 1.5   6.0 WNW | 295 2.2   7.5 WNW | 282 0.00 1.4   0.0 77.7   0.2 0.00 51.5   4.4 52.2   4.4 3.0   6.7
Elko-Bill Fishpond 2 9/5/26 0120 46.9   12.2 65   28 35.9   3.0 5.6   1.1 SE | 142 6.8   4.1 SSE | 147 0.00 3.5   0.0 69.0   0.1 0.00 46.7   12.1 49.3   10.1 6.8   4.1
Spring Creek SE 2 9/5/26 0120 52.7   1.5 55   10 37.2   3.5 2.4   2.9 ENE | 57 4.1   3.0 E | 79 0.00 0.2   0.0 70.4   0.1 0.00 52.3   1.4 53.0   2.8 4.7   2.4
Spring Creek NW 9/5/26 0110 54.2   4.4 53   12 37.6   2.4 3.6   6.0 N | 351 4.7   8.9 N | 350 0.00 2.3   0.0 74.1   0.4 0.00 54.1   4.5 54.3   4.5 4.7   8.9
Elko-Moleen 9/5/26 0120 51.9   5.9 58   13 37.5   1.3 1.2   3.4 SSW | 207 3.0   3.0 WSW | 249 0.00 6.3   0.1 77.8   0.2 0.00 51.6   5.6 52.7   5.5 4.7   2.5
Elko-West 9/5/26 0120 47.6   7.4 65   16 36.3   0.1 0.8   2.0 SE | 126 2.1   2.2 SE | 137 0.00 33.8   0.2 68.5   0.4 0.00 47.0   7.4 48.4   7.0 2.1   2.2
Elko-Adobe Creek 9/5/26 0120 45.7   9.7 73   26 37.4   2.1 5.9   2.0 NE | 39 7.1   4.6 NNE | 19 0.00 18.7   0.1 69.6   0.5 0.00 45.1   9.6 46.2   9.2 7.8   4.1
Tuscarora SW 9/5/26 0120 44.6   5.4 75   11 37.2   1.2 3.3   5.7 SW | 223 4.7   8.3 WSW | 245 0.00 6.8   0.1 70.6   1.6 0.00 43.4   6.2 51.1   0.5 5.3   7.7
Elko-Monument Peak 9/5/26 0120 43.8   8.0 70   28 34.7   5.3 1.0   2.3 SW | 221 3.1   2.5 WSW | 245 0.00 4.2   0.0 70.1   0.1 0.00 43.3   7.2 44.7   12.2 3.1   2.5
Wild Horse 9/5/26 0120 46.1   7.2 72   17 37.7   0.0 4.1   0.3 NE | 46 5.2   1.9 NE | 49 0.00 4.6   0.0 66.0   1.1 0.00 46.0   7.0 46.7   7.3 5.2   1.9
Max     88.7 100 46.8 26.4 - 37.0 - 0.00 43.5 98.8 0.00 88.4 89.4 37.0
Avg     54.7 55 37.2 4.2 - 7.7 - 0.00 7.0 71.4 - - - -
Min     39.8 15 23.4 0.0 - 0.0 - 0.00 0.2 32.0 0.00 38.5 40.5 0.0